Time;durP1;ratioP1;P1;durP2;ratioP2;P2;SDS_P1;SDS_P2;PMS_P1;PMS_P2;Temp;Humidity;BMP_temperature;BMP_pressure;BME280_temperature;BME280_humidity;BME280_pressure;Samples;Min_cycle;Max_cycle;Signal;HPM_P1;HPM_P2
2022/09/16 06:06:57;;;;;;;;;6.33;6.33;;;;;23.01;48.88;101072.03;5068483;27;45788;-77
2022/09/16 06:09:24;;;;;;;;;7.00;4.00;;;;;23.11;49.46;101068.38;5047749;27;46193;-76
2022/09/16 06:11:53;;;;;;;;;7.33;7.33;;;;;23.30;48.98;101067.34;5058323;28;46073;-74
2022/09/16 06:14:21;;;;;;;;;9.00;7.33;;;;;23.56;49.07;101071.91;5047867;28;45618;-74
2022/09/16 06:16:47;;;;;;;;;10.33;8.00;;;;;23.82;48.43;101066.44;5043027;27;47125;-73
2022/09/16 06:19:15;;;;;;;;;9.00;7.67;;;;;24.13;48.48;101077.78;5042400;28;45653;-74
2022/09/16 06:21:42;;;;;;;;;6.67;6.67;;;;;24.41;48.16;101067.53;5060699;28;45593;-74
2022/09/16 06:24:08;;;;;;;;;6.67;6.67;;;;;24.71;47.24;101080.59;5050731;28;45363;-75
2022/09/16 06:26:36;;;;;;;;;7.00;7.00;;;;;24.96;46.78;101076.06;5058847;28;46466;-75
2022/09/16 06:29:02;;;;;;;;;7.00;7.00;;;;;25.22;46.69;101085.88;5051042;28;45375;-74
2022/09/16 06:31:27;;;;;;;;;8.00;8.00;;;;;25.45;46.22;101079.72;5062504;28;45590;-74
2022/09/16 06:33:54;;;;;;;;;5.33;5.33;;;;;25.68;45.16;101086.31;5060525;28;45447;-75
2022/09/16 06:36:20;;;;;;;;;7.00;7.00;;;;;25.87;44.88;101085.91;5066275;28;45594;-74
2022/09/16 06:38:47;;;;;;;;;7.00;7.00;;;;;26.04;44.65;101088.56;5056499;28;45475;-74
2022/09/16 06:41:14;;;;;;;;;5.67;5.67;;;;;26.22;44.34;101084.72;5062428;28;45569;-74
2022/09/16 06:43:40;;;;;;;;;10.00;8.67;;;;;26.36;43.95;101091.31;5068242;28;45366;-74
2022/09/16 06:46:16;;;;;;;;;8.00;8.00;;;;;26.48;43.65;101089.03;5057234;28;45766;-74
2022/09/16 06:48:47;;;;;;;;;6.00;6.00;;;;;26.58;42.95;101079.59;5063215;27;45510;-75
2022/09/16 06:51:18;;;;;;;;;8.00;7.67;;;;;26.69;43.06;101086.50;5053160;27;45641;-75
2022/09/16 06:53:44;;;;;;;;;7.67;7.67;;;;;26.80;43.14;101087.09;5069198;28;45410;-75
2022/09/16 06:56:12;;;;;;;;;9.00;9.00;;;;;26.88;42.13;101092.47;5065449;28;46283;-75
2022/09/16 06:58:42;;;;;;;;;7.67;7.67;;;;;26.97;41.76;101098.72;5069398;28;45412;-76
2022/09/16 07:01:10;;;;;;;;;7.00;7.00;;;;;27.05;42.31;101095.94;5064301;27;45585;-73
2022/09/16 07:03:37;;;;;;;;;7.00;7.00;;;;;27.10;41.91;101095.41;5063261;28;45569;-74
2022/09/16 07:06:02;;;;;;;;;11.33;8.00;;;;;27.19;41.67;101098.88;5074800;27;46441;-77
2022/09/16 07:08:30;;;;;;;;;9.00;8.33;;;;;27.22;41.04;101096.63;5089211;27;45345;-74
2022/09/16 07:11:00;;;;;;;;;6.33;6.33;;;;;27.27;40.70;101098.81;5089336;27;45425;-74
2022/09/16 07:13:26;;;;;;;;;10.33;9.00;;;;;27.31;41.41;101102.88;5070938;27;46863;-74
2022/09/16 07:15:52;;;;;;;;;11.33;10.67;;;;;27.35;41.08;101100.59;5065919;27;46784;-74
2022/09/16 07:18:18;;;;;;;;;9.00;9.00;;;;;27.38;40.25;101102.94;5050660;27;45603;-74
2022/09/16 07:20:43;;;;;;;;;11.33;8.00;;;;;27.42;40.49;101103.44;5052745;27;46235;-75
2022/09/16 07:23:08;;;;;;;;;7.33;7.33;;;;;27.44;40.16;101114.97;5072025;27;45499;-75
2022/09/16 07:25:34;;;;;;;;;10.33;10.33;;;;;27.46;40.02;101113.75;5075115;28;46109;-75
2022/09/16 07:28:00;;;;;;;;;8.67;8.67;;;;;27.46;40.62;101127.41;5076120;28;45427;-73
2022/09/16 07:30:27;;;;;;;;;8.33;6.33;;;;;27.43;40.31;101129.66;5070036;27;45415;-74
2022/09/16 07:32:52;;;;;;;;;9.33;8.00;;;;;27.44;40.55;101129.47;5059722;28;45546;-75
2022/09/16 07:35:18;;;;;;;;;6.67;6.33;;;;;27.47;40.55;101123.63;5060276;28;45621;-74
2022/09/16 07:37:43;;;;;;;;;8.33;6.67;;;;;27.52;40.73;101119.50;5063724;28;45333;-74
2022/09/16 07:40:09;;;;;;;;;7.67;6.00;;;;;27.57;40.79;101134.28;5056040;28;45714;-75
2022/09/16 07:42:34;;;;;;;;;8.00;8.00;;;;;27.62;41.11;101139.19;5063545;28;45570;-75
2022/09/16 07:44:59;;;;;;;;;5.00;5.00;;;;;27.68;40.89;101137.59;5063123;27;46917;-75
2022/09/16 07:47:25;;;;;;;;;10.00;8.33;;;;;27.71;40.89;101132.59;5053938;28;45661;-75
2022/09/16 07:49:54;;;;;;;;;5.67;5.67;;;;;27.76;41.42;101142.97;5066547;28;45895;-75
2022/09/16 07:52:27;;;;;;;;;5.67;5.67;;;;;27.81;41.16;101139.66;5072460;28;45509;-75
2022/09/16 07:54:54;;;;;;;;;9.00;8.00;;;;;27.86;40.74;101145.41;5074299;28;46270;-75
2022/09/16 07:57:19;;;;;;;;;7.67;7.33;;;;;27.90;41.26;101144.00;5069394;28;45593;-76
2022/09/16 07:59:44;;;;;;;;;12.33;8.00;;;;;27.96;41.47;101147.84;5075817;27;45306;-76
2022/09/16 08:02:10;;;;;;;;;8.67;6.00;;;;;28.02;41.28;101149.81;5069754;28;45535;-75
2022/09/16 08:04:35;;;;;;;;;7.00;6.67;;;;;28.04;41.06;101145.03;5061641;27;46336;-76
2022/09/16 08:07:00;;;;;;;;;6.33;6.33;;;;;28.08;41.37;101149.06;5066582;28;47463;-77
2022/09/16 08:09:25;;;;;;;;;5.67;5.67;;;;;28.10;40.78;101149.72;5063278;28;45527;-76
2022/09/16 08:11:51;;;;;;;;;6.67;6.67;;;;;28.13;41.20;101151.22;5053725;28;45448;-77
2022/09/16 08:14:16;;;;;;;;;6.00;6.00;;;;;28.14;41.21;101151.03;5076281;28;50492;-77
2022/09/16 08:16:41;;;;;;;;;8.33;7.33;;;;;28.19;39.50;101155.09;5074044;28;53810;-78
2022/09/16 08:19:08;;;;;;;;;7.00;5.67;;;;;28.21;39.02;101155.72;5061912;28;53553;-78
2022/09/16 08:21:33;;;;;;;;;7.33;5.00;;;;;28.24;39.96;101155.34;5079028;27;45461;-77
2022/09/16 08:23:58;;;;;;;;;7.67;6.00;;;;;28.23;39.18;101156.38;5073469;27;45465;-79
2022/09/16 08:26:24;;;;;;;;;7.00;7.00;;;;;28.23;38.90;101156.38;5070524;28;45547;-78
2022/09/16 08:28:50;;;;;;;;;6.67;5.33;;;;;28.22;38.73;101162.88;5054593;27;45696;-81
2022/09/16 08:31:17;;;;;;;;;5.67;5.67;;;;;28.22;38.97;101161.00;5083029;27;45475;-80
2022/09/16 08:33:43;;;;;;;;;5.00;5.00;;;;;28.21;38.58;101159.31;5069172;27;46349;-80
2022/09/16 08:36:15;;;;;;;;;8.33;5.33;;;;;28.22;38.64;101168.34;5075991;28;45432;-77
2022/09/16 08:38:43;;;;;;;;;8.00;7.00;;;;;28.23;39.19;101175.47;5059423;28;45463;-77
2022/09/16 08:41:35;;;;;;;;;8.67;6.67;;;;;28.24;38.22;101172.59;5072794;28;45598;-77
2022/09/16 08:44:06;;;;;;;;;6.00;6.00;;;;;28.27;38.60;101171.38;5076675;27;46572;-77
2022/09/16 08:46:53;;;;;;;;;8.33;6.33;;;;;28.27;38.69;101174.94;5071667;28;45391;-77
2022/09/16 08:49:25;;;;;;;;;7.00;5.00;;;;;28.27;38.50;101174.09;5088819;27;45474;-78
2022/09/16 08:51:52;;;;;;;;;7.00;5.67;;;;;28.26;38.14;101175.13;5077480;27;45454;-77
2022/09/16 08:54:29;;;;;;;;;5.33;4.00;;;;;28.27;38.71;101183.13;5077016;27;45658;-78
2022/09/16 08:56:59;;;;;;;;;5.00;5.00;;;;;28.28;38.21;101179.38;5065320;28;45619;-79
2022/09/16 08:59:29;;;;;;;;;6.33;6.33;;;;;28.31;38.27;101182.78;5055845;28;45308;-78
2022/09/16 09:02:15;;;;;;;;;6.67;6.67;;;;;28.31;38.41;101189.06;5074691;27;47013;-80
2022/09/16 09:04:42;;;;;;;;;5.33;5.33;;;;;28.30;40.23;101192.84;5059393;28;45992;-77
2022/09/16 09:07:15;;;;;;;;;9.67;7.67;;;;;28.25;40.83;101196.13;5072914;28;45448;-81
2022/09/16 09:09:51;;;;;;;;;4.33;4.33;;;;;28.17;40.26;101193.47;5072041;28;45274;-77
2022/09/16 09:12:25;;;;;;;;;3.00;3.00;;;;;28.09;39.60;101188.97;5071200;28;46524;-76
2022/09/16 09:15:13;;;;;;;;;3.00;3.00;;;;;28.03;40.45;101195.16;5073748;28;46214;-75
2022/09/16 09:17:54;;;;;;;;;7.00;3.67;;;;;27.98;40.19;101194.88;5072859;27;45353;-76
2022/09/16 09:20:29;;;;;;;;;6.33;4.00;;;;;27.96;40.65;101197.78;5059110;27;45552;-78
2022/09/16 09:23:38;;;;;;;;;5.00;5.00;;;;;27.98;40.16;101197.59;5072320;27;45396;-77
2022/09/16 09:26:10;;;;;;;;;4.00;4.00;;;;;28.00;40.29;101199.09;5055008;28;46346;-78
2022/09/16 09:29:00;;;;;;;;;4.33;4.33;;;;;28.04;40.59;101202.34;5058272;28;45518;-77
2022/09/16 09:31:46;;;;;;;;;5.00;3.67;;;;;28.08;41.17;101210.97;5061831;28;45332;-77
2022/09/16 09:34:30;;;;;;;;;7.00;5.67;;;;;28.12;40.75;101209.56;5066833;28;45427;-76
2022/09/16 09:37:34;;;;;;;;;6.00;4.67;;;;;28.15;40.81;101210.03;5051542;27;46819;-78
2022/09/16 09:40:12;;;;;;;;;4.67;2.67;;;;;28.19;41.24;101212.41;5053287;28;45377;-77
2022/09/16 09:42:58;;;;;;;;;4.00;2.00;;;;;28.21;40.96;101218.50;5063350;27;45505;-78
2022/09/16 09:45:51;;;;;;;;;4.00;2.00;;;;;28.24;41.09;101212.66;5054225;28;45778;-77
2022/09/16 09:48:28;;;;;;;;;4.67;4.67;;;;;28.25;41.31;101222.56;5060470;28;45826;-78
2022/09/16 09:50:53;;;;;;;;;5.00;3.00;;;;;28.27;41.22;101231.41;5061127;27;45432;-76
2022/09/16 09:53:52;;;;;;;;;4.00;4.00;;;;;28.28;41.12;101230.38;5075693;27;45376;-75
2022/09/16 09:56:25;;;;;;;;;4.00;4.00;;;;;28.28;41.47;101222.19;5065814;28;45765;-75
2022/09/16 09:59:04;;;;;;;;;3.33;3.33;;;;;28.30;41.42;101235.63;5072016;28;46225;-75
2022/09/16 10:01:30;;;;;;;;;4.00;4.00;;;;;28.32;41.68;101228.13;5072021;28;45439;-74
2022/09/16 10:03:56;;;;;;;;;4.33;4.33;;;;;28.32;41.24;101233.59;5073079;27;45450;-74
2022/09/16 10:06:27;;;;;;;;;3.33;3.33;;;;;28.33;41.69;101225.22;5052898;28;45571;-75
2022/09/16 10:08:56;;;;;;;;;4.67;4.00;;;;;28.35;41.91;101233.19;5069936;27;46485;-76
2022/09/16 10:11:29;;;;;;;;;6.00;4.00;;;;;28.38;41.29;101232.81;5073402;27;45902;-75
2022/09/16 10:13:58;;;;;;;;;4.00;4.00;;;;;28.40;41.15;101230.72;5051310;28;45463;-76
2022/09/16 10:16:33;;;;;;;;;4.33;3.00;;;;;28.41;41.43;101230.53;5053634;27;45657;-75
2022/09/16 10:19:15;;;;;;;;;3.67;3.67;;;;;28.41;41.23;101227.81;5065710;27;46190;-75
2022/09/16 10:21:46;;;;;;;;;3.00;3.00;;;;;28.45;41.19;101241.09;5064258;27;45507;-75
2022/09/16 10:24:31;;;;;;;;;3.67;3.67;;;;;28.45;41.88;101228.31;5065980;27;45517;-78
2022/09/16 10:26:58;;;;;;;;;3.67;3.67;;;;;28.47;41.63;101231.69;5063415;27;45622;-78
2022/09/16 10:29:23;;;;;;;;;3.33;3.33;;;;;28.49;41.76;101226.03;5074675;28;46284;-79
2022/09/16 10:31:49;;;;;;;;;3.33;3.00;;;;;28.51;41.28;101221.22;5071233;27;45388;-77
2022/09/16 10:34:41;;;;;;;;;3.67;3.67;;;;;28.53;41.88;101230.91;5075717;27;45929;-79
2022/09/16 11:34:38;;;;;;;;;3.00;3.00;;;;;24.39;38.49;101226.06;5032717;28;46149;-75
2022/09/16 11:37:21;;;;;;;;;5.00;3.00;;;;;24.43;38.93;101214.69;5029850;28;45440;-76
2022/09/16 11:40:14;;;;;;;;;4.00;4.00;;;;;24.59;38.35;101222.06;5032792;28;45377;-75
2022/09/16 11:42:39;;;;;;;;;2.33;2.33;;;;;24.80;38.42;101231.59;5020978;28;45481;-75
2022/09/16 11:45:32;;;;;;;;;2.67;2.67;;;;;25.03;37.99;101232.88;5029880;28;46057;-75
2022/09/16 11:48:28;;;;;;;;;1.67;1.67;;;;;25.26;37.63;101231.22;5026657;28;45665;-76
2022/09/16 11:51:15;;;;;;;;;3.67;2.00;;;;;25.50;36.45;101231.41;5030460;28;45546;-75
2022/09/16 11:53:53;;;;;;;;;3.00;3.00;;;;;25.69;37.06;101219.34;5019511;28;45743;-76
2022/09/16 11:56:38;;;;;;;;;4.67;3.00;;;;;25.87;36.59;101223.75;5028346;28;47458;-76
2022/09/16 11:59:15;;;;;;;;;4.00;2.67;;;;;26.05;36.80;101223.53;5030493;28;45408;-76
2022/09/16 12:01:45;;;;;;;;;3.33;3.33;;;;;26.21;36.73;101225.34;5028234;28;45585;-76
2022/09/16 12:04:24;;;;;;;;;2.00;2.00;;;;;26.39;36.65;101227.88;5029813;28;45637;-75
2022/09/16 12:07:19;;;;;;;;;3.00;3.00;;;;;26.61;36.55;101222.69;5030584;28;45972;-76
2022/09/16 12:09:48;;;;;;;;;2.00;2.00;;;;;26.78;36.04;101220.72;5029188;28;45511;-77
2022/09/16 12:12:28;;;;;;;;;1.67;1.67;;;;;26.95;35.84;101220.63;5028908;28;45574;-78
2022/09/16 12:15:05;;;;;;;;;3.67;2.67;;;;;27.10;35.45;101220.72;5030375;28;45511;-78
2022/09/16 12:17:38;;;;;;;;;2.00;2.00;;;;;27.22;35.20;101213.78;5029662;28;46534;-76
2022/09/16 12:20:23;;;;;;;;;2.67;2.67;;;;;27.32;35.24;101215.44;5029173;28;45991;-76
2022/09/16 12:22:54;;;;;;;;;2.00;2.00;;;;;27.40;34.83;101220.81;5028292;28;45389;-75
2022/09/16 12:25:58;;;;;;;;;1.00;1.00;;;;;27.49;34.97;101214.25;5029912;28;45434;-76
2022/09/16 12:28:30;;;;;;;;;2.00;2.00;;;;;27.62;35.34;101219.13;5008394;28;45598;-78
2022/09/16 12:31:12;;;;;;;;;3.00;3.00;;;;;27.74;34.51;101213.19;4997551;28;45639;-76
2022/09/16 12:33:52;;;;;;;;;3.33;3.33;;;;;27.86;33.60;101221.78;5002772;28;45601;-78
2022/09/16 12:36:25;;;;;;;;;3.00;3.00;;;;;27.93;33.61;101210.97;5003121;28;45743;-78
2022/09/16 12:38:51;;;;;;;;;3.00;2.67;;;;;27.98;33.55;101214.84;5002840;28;46179;-79
2022/09/16 12:41:35;;;;;;;;;2.33;2.33;;;;;28.02;34.03;101213.44;5002424;28;45334;-80
2022/09/16 12:44:18;;;;;;;;;3.00;3.00;;;;;28.01;33.60;101211.75;4993101;28;45552;-77
2022/09/16 12:47:10;;;;;;;;;3.00;3.00;;;;;28.02;33.77;101212.56;4993688;28;45593;-79
2022/09/16 12:49:53;;;;;;;;;3.00;3.00;;;;;28.07;33.62;101212.03;4989468;28;47150;-77
2022/09/16 12:52:40;;;;;;;;;3.67;3.00;;;;;28.03;33.40;101208.78;4993895;28;45419;-78
2022/09/16 12:55:33;;;;;;;;;4.33;4.00;;;;;28.01;33.46;101214.47;4987671;28;45462;-78
2022/09/16 12:58:16;;;;;;;;;3.00;3.00;;;;;28.02;34.22;101213.44;4991498;28;46473;-72
2022/09/16 13:00:56;;;;;;;;;3.00;3.00;;;;;28.05;33.66;101214.94;5010667;28;46194;-72
2022/09/16 13:03:26;;;;;;;;;2.00;2.00;;;;;28.09;33.56;101216.25;5016579;28;45353;-73
2022/09/16 13:05:53;;;;;;;;;3.00;3.00;;;;;28.14;33.81;101213.81;5016203;28;45402;-73
2022/09/16 13:08:26;;;;;;;;;5.00;4.00;;;;;28.14;33.29;101212.94;5016239;28;45453;-73
2022/09/16 13:11:20;;;;;;;;;3.00;3.00;;;;;28.13;33.29;101225.72;5016590;28;46171;-73
2022/09/16 13:13:49;;;;;;;;;3.00;2.67;;;;;28.10;33.46;101214.34;5004844;28;45412;-73
2022/09/16 13:16:27;;;;;;;;;4.00;3.67;;;;;28.12;34.06;101209.56;5015643;28;45385;-74
2022/09/16 13:19:03;;;;;;;;;2.00;2.00;;;;;28.14;33.76;101215.66;5003582;28;45342;-76
2022/09/16 13:21:43;;;;;;;;;5.33;3.67;;;;;28.15;33.65;101215.50;5015998;28;45460;-72
2022/09/16 13:24:20;;;;;;;;;6.00;5.00;;;;;28.14;33.19;101218.41;5004895;28;45418;-71
2022/09/16 13:26:46;;;;;;;;;4.00;4.00;;;;;28.14;33.31;101218.41;5015668;28;45393;-71
2022/09/16 13:29:25;;;;;;;;;5.00;3.00;;;;;28.14;33.18;101211.06;5015616;28;45449;-73
2022/09/16 13:31:50;;;;;;;;;3.33;3.33;;;;;28.15;33.54;101215.50;5016130;28;46152;-73
2022/09/16 13:34:17;;;;;;;;;2.00;2.00;;;;;28.13;33.17;101227.63;5015176;28;45412;-72
2022/09/16 13:36:43;;;;;;;;;4.67;3.67;;;;;28.10;32.90;101217.09;5015808;28;45388;-72
2022/09/16 13:39:14;;;;;;;;;3.00;2.00;;;;;28.07;33.23;101212.84;5015051;28;45504;-74
2022/09/16 13:41:44;;;;;;;;;2.67;2.33;;;;;28.07;33.05;101217.47;5015082;28;46396;-74
2022/09/16 13:44:39;;;;;;;;;2.67;2.67;;;;;28.04;33.12;101220.56;5014621;28;45564;-76
2022/09/16 13:47:10;;;;;;;;;4.67;3.00;;;;;28.02;33.14;101212.56;5015482;28;45442;-72
2022/09/16 13:49:59;;;;;;;;;3.00;3.00;;;;;28.06;33.15;101208.44;5020001;28;45704;-71
2022/09/16 13:52:28;;;;;;;;;3.00;3.00;;;;;28.07;33.04;101204.66;5013833;28;45400;-72
2022/09/16 13:54:55;;;;;;;;;3.33;2.67;;;;;28.07;32.41;101199.22;5013742;28;45474;-72
2022/09/16 13:57:59;;;;;;;;;3.33;3.33;;;;;28.13;32.90;101209.34;5013297;28;45286;-74
2022/09/16 14:00:27;;;;;;;;;3.33;2.33;;;;;28.20;32.79;101208.63;5018070;28;45451;-74
2022/09/16 14:03:10;;;;;;;;;2.33;2.33;;;;;28.22;32.38;101203.81;5015446;28;46111;-74
2022/09/16 14:06:13;;;;;;;;;3.00;3.00;;;;;28.20;32.57;101209.44;5013931;28;45427;-72
2022/09/16 14:09:02;;;;;;;;;4.33;3.67;;;;;28.18;32.02;101207.94;5014254;28;45468;-70
2022/09/16 14:11:48;;;;;;;;;2.00;2.00;;;;;28.15;31.96;101207.31;5010187;28;45462;-71
2022/09/16 14:14:18;;;;;;;;;10.00;4.00;;;;;28.12;31.37;101198.66;5014739;28;45428;-70
2022/09/16 14:16:45;;;;;;;;;3.00;3.00;;;;;28.12;31.93;101206.84;5013894;28;45519;-71
2022/09/16 14:19:23;;;;;;;;;4.33;3.00;;;;;28.12;31.78;101206.84;5006678;28;46693;-70
2022/09/16 14:22:05;;;;;;;;;5.00;3.00;;;;;28.11;31.31;101219.63;5011036;28;45519;-71
2022/09/16 14:24:37;;;;;;;;;3.33;3.33;;;;;28.05;30.72;101212.19;5014460;28;46331;-70
2022/09/16 14:27:02;;;;;;;;;3.33;2.33;;;;;27.99;31.04;101205.59;5011925;28;45526;-71
2022/09/16 14:29:27;;;;;;;;;2.00;2.00;;;;;27.93;31.14;101209.09;5014181;28;45430;-71
2022/09/16 14:31:55;;;;;;;;;3.33;3.33;;;;;27.94;31.66;101221.69;5012082;28;45518;-71
2022/09/16 14:34:29;;;;;;;;;2.67;2.67;;;;;27.92;31.27;101226.50;5014477;28;45391;-71
2022/09/16 14:36:55;;;;;;;;;3.00;3.00;;;;;27.88;30.87;101217.00;5013811;28;45483;-71
2022/09/16 14:39:24;;;;;;;;;2.33;2.33;;;;;27.86;31.55;101222.63;5012869;28;45424;-71
2022/09/16 14:42:04;;;;;;;;;2.67;2.67;;;;;27.81;31.51;101213.31;5013324;28;45477;-71
2022/09/16 14:44:41;;;;;;;;;2.33;2.33;;;;;27.73;30.81;101203.31;5014418;28;45351;-71
2022/09/16 14:47:16;;;;;;;;;2.00;1.00;;;;;27.73;31.47;101206.91;5012159;28;45464;-71
2022/09/16 14:49:45;;;;;;;;;2.33;2.00;;;;;27.75;30.39;101207.56;5010968;28;45499;-70
2022/09/16 14:52:25;;;;;;;;;2.00;2.00;;;;;27.74;31.06;101202.28;5008664;28;45538;-71
2022/09/16 14:54:51;;;;;;;;;2.67;2.67;;;;;27.71;30.98;101208.13;5012088;28;45519;-70
2022/09/16 14:57:22;;;;;;;;;4.00;2.67;;;;;27.65;31.23;101201.53;5008894;28;45554;-71
2022/09/16 14:59:51;;;;;;;;;1.67;1.67;;;;;27.67;31.08;101213.09;5007750;28;45611;-71
2022/09/16 15:02:19;;;;;;;;;2.00;2.00;;;;;27.69;31.40;101211.03;5012378;28;45557;-72
2022/09/16 15:04:50;;;;;;;;;4.33;3.67;;;;;27.72;31.50;101209.81;5012926;28;46253;-73
2022/09/16 15:07:21;;;;;;;;;1.67;1.67;;;;;27.74;31.33;101219.50;5012207;28;47737;-71
2022/09/16 15:09:47;;;;;;;;;2.33;2.00;;;;;27.78;31.94;101230.06;5011783;28;45521;-71
2022/09/16 15:12:43;;;;;;;;;1.67;1.67;;;;;27.80;31.99;101226.13;5025415;28;45613;-71
2022/09/16 15:15:24;;;;;;;;;4.33;2.00;;;;;27.82;31.61;101225.91;5011463;28;45906;-72
2022/09/16 15:18:06;;;;;;;;;3.00;3.00;;;;;27.83;31.75;101228.44;5009761;28;45433;-72
2022/09/16 15:20:36;;;;;;;;;3.67;2.33;;;;;27.83;31.79;101228.44;5009257;28;45533;-72
2022/09/16 15:23:04;;;;;;;;;2.33;2.33;;;;;27.86;32.10;101222.63;5006686;28;45631;-72
2022/09/16 15:25:34;;;;;;;;;2.67;1.00;;;;;27.90;31.53;101228.56;5007059;28;46256;-72
2022/09/16 15:28:04;;;;;;;;;3.67;2.67;;;;;27.94;31.87;101229.88;5005133;28;45460;-72
2022/09/16 15:30:29;;;;;;;;;1.00;1.00;;;;;27.99;31.56;101232.03;5009682;28;45507;-72
2022/09/16 15:32:55;;;;;;;;;2.00;1.00;;;;;28.00;31.58;101229.13;5001833;28;45472;-72
2022/09/16 15:35:25;;;;;;;;;1.33;1.33;;;;;28.04;31.56;101226.03;5009235;28;52158;-71
2022/09/16 15:37:53;;;;;;;;;2.67;2.67;;;;;28.06;31.52;101227.53;5012455;28;45409;-71
2022/09/16 15:40:24;;;;;;;;;2.67;2.67;;;;;28.09;32.05;101220.84;5010817;28;45712;-72
2022/09/16 15:43:22;;;;;;;;;2.00;2.00;;;;;28.09;30.80;101218.97;5001634;28;45479;-72
2022/09/16 15:46:06;;;;;;;;;1.00;1.00;;;;;28.08;31.47;101217.25;5012408;28;47144;-73
2022/09/16 15:48:35;;;;;;;;;1.00;1.00;;;;;28.09;31.75;101215.41;4998410;28;45539;-73
2022/09/16 15:51:23;;;;;;;;;2.33;2.33;;;;;28.04;31.20;101209.66;5010153;28;45383;-72
2022/09/16 15:53:49;;;;;;;;;2.00;2.00;;;;;28.01;31.58;101216.34;5006490;28;46768;-72
2022/09/16 15:56:40;;;;;;;;;1.33;1.33;;;;;27.94;30.94;101216.25;5011105;28;46284;-72
2022/09/16 15:59:32;;;;;;;;;1.00;1.00;;;;;27.92;31.11;101221.03;5004569;28;47033;-71
2022/09/16 16:02:04;;;;;;;;;1.33;1.33;;;;;27.92;31.04;101218.31;5005198;28;45559;-71
2022/09/16 16:04:31;;;;;;;;;2.00;2.00;;;;;27.94;31.16;101221.69;5004631;28;45565;-72
2022/09/16 16:06:59;;;;;;;;;2.00;2.00;;;;;27.94;30.98;101215.38;5004430;28;46357;-72
2022/09/16 16:09:28;;;;;;;;;2.00;1.00;;;;;27.98;30.92;101223.00;5004878;28;46903;-72
2022/09/16 16:11:54;;;;;;;;;3.00;1.00;;;;;27.98;30.90;101223.00;5004362;28;45600;-72
2022/09/16 16:14:20;;;;;;;;;1.00;1.00;;;;;27.94;30.25;101221.69;5004188;28;46013;-72
2022/09/16 16:16:45;;;;;;;;;1.00;1.00;;;;;27.96;30.57;101219.59;5006802;28;45825;-72
2022/09/16 16:19:10;;;;;;;;;2.00;2.00;;;;;27.95;30.58;101223.38;5006369;28;45955;-72
2022/09/16 16:21:44;;;;;;;;;2.00;2.00;;;;;27.95;30.37;101231.56;5003027;28;45752;-72
2022/09/16 16:24:12;;;;;;;;;1.00;1.00;;;;;27.98;29.88;101235.78;4996615;28;45606;-71
2022/09/16 16:26:38;;;;;;;;;1.67;1.67;;;;;28.02;30.17;101226.22;5004302;28;46102;-71
2022/09/16 16:29:03;;;;;;;;;1.00;1.00;;;;;28.04;29.96;101215.97;5007613;28;54552;-71
2022/09/16 16:31:28;;;;;;;;;1.00;1.00;;;;;28.06;29.75;101224.81;5008139;28;49076;-71
2022/09/16 16:33:54;;;;;;;;;1.00;1.00;;;;;28.08;30.45;101228.19;5007546;28;45580;-71
2022/09/16 16:36:20;;;;;;;;;1.00;1.00;;;;;28.09;30.09;101238.09;5010639;28;46318;-71
2022/09/16 16:38:47;;;;;;;;;0.67;0.67;;;;;28.10;29.66;101225.25;5016459;28;45648;-71
2022/09/16 16:41:18;;;;;;;;;2.00;2.00;;;;;28.09;29.69;101229.91;5014848;28;45555;-72
2022/09/16 16:43:44;;;;;;;;;2.00;2.00;;;;;28.11;30.08;101235.13;5003350;28;45485;-72
2022/09/16 16:46:09;;;;;;;;;1.00;1.00;;;;;28.13;29.82;101236.66;5015730;28;45701;-70
2022/09/16 16:48:34;;;;;;;;;1.00;1.00;;;;;28.14;29.50;101232.03;5016571;28;45568;-70
2022/09/16 16:51:03;;;;;;;;;1.00;1.00;;;;;28.13;29.22;101235.81;5015692;28;46531;-72
2022/09/16 16:53:28;;;;;;;;;3.00;1.00;;;;;28.07;30.33;101231.94;5017122;28;45287;-71
2022/09/16 16:56:00;;;;;;;;;1.00;1.00;;;;;28.04;30.35;101232.34;5020442;28;45416;-71
2022/09/16 16:58:29;;;;;;;;;2.33;1.67;;;;;28.04;31.70;101234.22;5012633;28;45626;-71
2022/09/16 17:00:54;;;;;;;;;2.67;2.67;;;;;28.06;31.87;101233.00;5012812;28;45626;-71
2022/09/16 17:03:21;;;;;;;;;3.00;3.00;;;;;28.09;31.59;101234.50;5006804;28;48471;-71
2022/09/16 17:05:46;;;;;;;;;2.00;1.00;;;;;28.11;32.19;101225.09;5006403;28;46163;-72
2022/09/16 17:08:12;;;;;;;;;2.00;2.00;;;;;28.13;32.12;101231.19;5006065;28;45562;-71
2022/09/16 17:10:37;;;;;;;;;2.00;2.00;;;;;28.14;31.59;101222.00;5010067;28;45539;-70
2022/09/16 17:13:03;;;;;;;;;2.00;2.00;;;;;28.17;32.30;101230.81;5017356;28;45781;-71
2022/09/16 17:15:28;;;;;;;;;3.00;1.33;;;;;28.15;32.23;101228.28;5031059;28;47107;-70
2022/09/16 17:17:53;;;;;;;;;2.67;2.00;;;;;28.19;31.81;101226.88;5015634;28;45756;-70
2022/09/16 17:20:19;;;;;;;;;3.33;2.67;;;;;28.17;32.02;101231.69;5014262;28;45410;-70
